sensor_id;sensor_type;location;lat;lon;timestamp;P1;durP1;ratioP1;P2;durP2;ratioP2
59052;SDS011;44843;44.728;10.396;2023-05-13T00:01:22;12.93;;;8.60;;
59052;SDS011;44843;44.728;10.396;2023-05-13T00:03:47;14.65;;;9.88;;
59052;SDS011;44843;44.728;10.396;2023-05-13T00:06:12;15.95;;;10.27;;
59052;SDS011;44843;44.728;10.396;2023-05-13T00:08:38;13.48;;;9.77;;
59052;SDS011;44843;44.728;10.396;2023-05-13T00:11:03;13.13;;;9.07;;
59052;SDS011;44843;44.728;10.396;2023-05-13T00:13:28;13.27;;;9.20;;
59052;SDS011;44843;44.728;10.396;2023-05-13T00:15:54;17.33;;;9.43;;
59052;SDS011;44843;44.728;10.396;2023-05-13T00:18:19;11.25;;;8.23;;
59052;SDS011;44843;44.728;10.396;2023-05-13T00:20:45;12.40;;;8.93;;
59052;SDS011;44843;44.728;10.396;2023-05-13T00:23:10;13.63;;;8.90;;
59052;SDS011;44843;44.728;10.396;2023-05-13T00:25:36;15.70;;;9.32;;
59052;SDS011;44843;44.728;10.396;2023-05-13T00:28:02;15.75;;;9.50;;
59052;SDS011;44843;44.728;10.396;2023-05-13T00:30:27;17.63;;;10.48;;
59052;SDS011;44843;44.728;10.396;2023-05-13T00:32:53;16.77;;;10.15;;
59052;SDS011;44843;44.728;10.396;2023-05-13T00:35:18;13.05;;;8.52;;
59052;SDS011;44843;44.728;10.396;2023-05-13T00:37:44;15.63;;;8.48;;
59052;SDS011;44843;44.728;10.396;2023-05-13T00:40:14;13.07;;;9.02;;
59052;SDS011;44843;44.728;10.396;2023-05-13T00:42:49;12.95;;;8.73;;
59052;SDS011;44843;44.728;10.396;2023-05-13T00:45:15;11.70;;;8.23;;
59052;SDS011;44843;44.728;10.396;2023-05-13T00:47:41;12.98;;;9.57;;
59052;SDS011;44843;44.728;10.396;2023-05-13T00:50:07;17.10;;;9.25;;
59052;SDS011;44843;44.728;10.396;2023-05-13T00:52:35;13.13;;;8.75;;
59052;SDS011;44843;44.728;10.396;2023-05-13T00:55:02;13.23;;;10.25;;
59052;SDS011;44843;44.728;10.396;2023-05-13T00:57:28;13.88;;;9.98;;
59052;SDS011;44843;44.728;10.396;2023-05-13T00:59:54;15.57;;;10.35;;
59052;SDS011;44843;44.728;10.396;2023-05-13T01:02:31;14.15;;;9.80;;
59052;SDS011;44843;44.728;10.396;2023-05-13T01:05:02;14.88;;;9.18;;
59052;SDS011;44843;44.728;10.396;2023-05-13T01:12:54;16.60;;;11.57;;
59052;SDS011;44843;44.728;10.396;2023-05-13T01:15:25;21.48;;;11.30;;
59052;SDS011;44843;44.728;10.396;2023-05-13T01:17:53;16.10;;;11.02;;
59052;SDS011;44843;44.728;10.396;2023-05-13T01:20:25;16.30;;;10.23;;
59052;SDS011;44843;44.728;10.396;2023-05-13T01:22:51;18.38;;;11.60;;
59052;SDS011;44843;44.728;10.396;2023-05-13T01:25:17;23.90;;;12.63;;
59052;SDS011;44843;44.728;10.396;2023-05-13T01:27:42;26.20;;;14.57;;
59052;SDS011;44843;44.728;10.396;2023-05-13T01:30:08;21.85;;;12.85;;
59052;SDS011;44843;44.728;10.396;2023-05-13T01:32:34;23.75;;;13.57;;
59052;SDS011;44843;44.728;10.396;2023-05-13T01:35:01;24.33;;;14.32;;
59052;SDS011;44843;44.728;10.396;2023-05-13T01:37:28;26.95;;;13.27;;
59052;SDS011;44843;44.728;10.396;2023-05-13T01:39:54;24.00;;;14.18;;
59052;SDS011;44843;44.728;10.396;2023-05-13T01:42:20;29.27;;;15.48;;
59052;SDS011;44843;44.728;10.396;2023-05-13T01:44:47;24.38;;;14.10;;
59052;SDS011;44843;44.728;10.396;2023-05-13T01:47:12;28.40;;;15.93;;
59052;SDS011;44843;44.728;10.396;2023-05-13T01:49:38;27.23;;;15.60;;
59052;SDS011;44843;44.728;10.396;2023-05-13T01:52:03;25.95;;;15.57;;
59052;SDS011;44843;44.728;10.396;2023-05-13T01:54:29;22.80;;;13.68;;
59052;SDS011;44843;44.728;10.396;2023-05-13T01:56:54;23.17;;;14.68;;
59052;SDS011;44843;44.728;10.396;2023-05-13T01:59:20;25.77;;;13.20;;
59052;SDS011;44843;44.728;10.396;2023-05-13T02:01:46;24.98;;;11.35;;
59052;SDS011;44843;44.728;10.396;2023-05-13T02:04:11;9.77;;;6.60;;
59052;SDS011;44843;44.728;10.396;2023-05-13T02:06:36;10.68;;;4.70;;
59052;SDS011;44843;44.728;10.396;2023-05-13T02:09:02;6.63;;;3.78;;
59052;SDS011;44843;44.728;10.396;2023-05-13T02:11:27;6.90;;;4.03;;
59052;SDS011;44843;44.728;10.396;2023-05-13T02:13:52;5.13;;;4.45;;
59052;SDS011;44843;44.728;10.396;2023-05-13T02:16:18;6.72;;;4.93;;
59052;SDS011;44843;44.728;10.396;2023-05-13T02:18:43;9.95;;;6.20;;
59052;SDS011;44843;44.728;10.396;2023-05-13T02:21:09;11.02;;;5.93;;
59052;SDS011;44843;44.728;10.396;2023-05-13T02:23:34;11.05;;;5.80;;
59052;SDS011;44843;44.728;10.396;2023-05-13T02:26:00;9.90;;;6.28;;
59052;SDS011;44843;44.728;10.396;2023-05-13T02:28:25;12.43;;;7.65;;
59052;SDS011;44843;44.728;10.396;2023-05-13T02:30:51;10.38;;;7.30;;
59052;SDS011;44843;44.728;10.396;2023-05-13T02:33:16;12.73;;;7.97;;
59052;SDS011;44843;44.728;10.396;2023-05-13T02:35:42;12.30;;;7.60;;
59052;SDS011;44843;44.728;10.396;2023-05-13T02:38:10;11.75;;;8.07;;
59052;SDS011;44843;44.728;10.396;2023-05-13T02:40:36;10.77;;;7.35;;
59052;SDS011;44843;44.728;10.396;2023-05-13T02:43:01;15.77;;;8.52;;
59052;SDS011;44843;44.728;10.396;2023-05-13T02:45:27;13.52;;;8.70;;
59052;SDS011;44843;44.728;10.396;2023-05-13T02:47:53;12.23;;;7.93;;
59052;SDS011;44843;44.728;10.396;2023-05-13T02:50:18;14.43;;;8.93;;
59052;SDS011;44843;44.728;10.396;2023-05-13T02:52:43;15.27;;;8.82;;
59052;SDS011;44843;44.728;10.396;2023-05-13T02:55:09;16.23;;;9.75;;
59052;SDS011;44843;44.728;10.396;2023-05-13T02:57:34;18.92;;;10.45;;
59052;SDS011;44843;44.728;10.396;2023-05-13T03:00:01;16.83;;;9.70;;
59052;SDS011;44843;44.728;10.396;2023-05-13T03:02:28;20.83;;;10.20;;
59052;SDS011;44843;44.728;10.396;2023-05-13T03:04:54;15.60;;;9.98;;
59052;SDS011;44843;44.728;10.396;2023-05-13T03:07:20;15.73;;;10.38;;
59052;SDS011;44843;44.728;10.396;2023-05-13T03:09:46;16.05;;;10.23;;
59052;SDS011;44843;44.728;10.396;2023-05-13T03:12:11;15.90;;;10.35;;
59052;SDS011;44843;44.728;10.396;2023-05-13T03:14:37;17.17;;;10.38;;
59052;SDS011;44843;44.728;10.396;2023-05-13T03:17:02;19.48;;;11.38;;
59052;SDS011;44843;44.728;10.396;2023-05-13T03:19:28;18.58;;;10.55;;
59052;SDS011;44843;44.728;10.396;2023-05-13T03:21:53;16.27;;;9.82;;
59052;SDS011;44843;44.728;10.396;2023-05-13T03:24:19;13.02;;;8.98;;
59052;SDS011;44843;44.728;10.396;2023-05-13T03:26:44;15.48;;;8.63;;
59052;SDS011;44843;44.728;10.396;2023-05-13T03:29:09;11.05;;;7.97;;
59052;SDS011;44843;44.728;10.396;2023-05-13T03:31:35;14.45;;;6.78;;
59052;SDS011;44843;44.728;10.396;2023-05-13T03:34:01;12.98;;;7.07;;
59052;SDS011;44843;44.728;10.396;2023-05-13T03:36:27;11.57;;;6.82;;
59052;SDS011;44843;44.728;10.396;2023-05-13T03:38:52;8.98;;;6.03;;
59052;SDS011;44843;44.728;10.396;2023-05-13T03:41:18;8.75;;;5.75;;
59052;SDS011;44843;44.728;10.396;2023-05-13T03:43:43;11.68;;;5.75;;
59052;SDS011;44843;44.728;10.396;2023-05-13T03:46:09;9.25;;;5.40;;
59052;SDS011;44843;44.728;10.396;2023-05-13T03:48:35;10.48;;;5.95;;
59052;SDS011;44843;44.728;10.396;2023-05-13T03:51:01;10.38;;;5.43;;
59052;SDS011;44843;44.728;10.396;2023-05-13T03:53:26;10.73;;;6.32;;
59052;SDS011;44843;44.728;10.396;2023-05-13T03:55:51;10.13;;;5.82;;
59052;SDS011;44843;44.728;10.396;2023-05-13T03:58:17;11.07;;;6.07;;
59052;SDS011;44843;44.728;10.396;2023-05-13T04:00:43;14.25;;;6.43;;
59052;SDS011;44843;44.728;10.396;2023-05-13T04:03:11;11.40;;;6.25;;
59052;SDS011;44843;44.728;10.396;2023-05-13T04:05:37;11.40;;;7.22;;
59052;SDS011;44843;44.728;10.396;2023-05-13T04:08:03;11.73;;;6.28;;
59052;SDS011;44843;44.728;10.396;2023-05-13T04:10:28;12.27;;;6.10;;
59052;SDS011;44843;44.728;10.396;2023-05-13T04:12:54;9.60;;;6.75;;
59052;SDS011;44843;44.728;10.396;2023-05-13T04:15:19;12.18;;;6.57;;
59052;SDS011;44843;44.728;10.396;2023-05-13T04:17:44;12.18;;;6.75;;
59052;SDS011;44843;44.728;10.396;2023-05-13T04:20:10;11.43;;;6.95;;
59052;SDS011;44843;44.728;10.396;2023-05-13T04:22:35;9.70;;;6.53;;
59052;SDS011;44843;44.728;10.396;2023-05-13T04:25:01;12.27;;;7.25;;
59052;SDS011;44843;44.728;10.396;2023-05-13T04:27:26;15.35;;;7.13;;
59052;SDS011;44843;44.728;10.396;2023-05-13T04:29:51;13.98;;;7.10;;
59052;SDS011;44843;44.728;10.396;2023-05-13T04:32:17;14.30;;;6.63;;
59052;SDS011;44843;44.728;10.396;2023-05-13T04:34:48;14.93;;;7.68;;
59052;SDS011;44843;44.728;10.396;2023-05-13T04:37:15;16.25;;;6.95;;
59052;SDS011;44843;44.728;10.396;2023-05-13T04:39:41;13.73;;;6.97;;
59052;SDS011;44843;44.728;10.396;2023-05-13T04:42:10;13.75;;;6.75;;
59052;SDS011;44843;44.728;10.396;2023-05-13T04:44:35;17.95;;;7.85;;
59052;SDS011;44843;44.728;10.396;2023-05-13T04:47:01;16.48;;;7.43;;
59052;SDS011;44843;44.728;10.396;2023-05-13T04:49:26;19.35;;;7.07;;
59052;SDS011;44843;44.728;10.396;2023-05-13T04:51:52;18.25;;;7.97;;
59052;SDS011;44843;44.728;10.396;2023-05-13T04:54:17;21.42;;;7.78;;
59052;SDS011;44843;44.728;10.396;2023-05-13T04:56:43;17.90;;;8.15;;
59052;SDS011;44843;44.728;10.396;2023-05-13T04:59:08;20.88;;;8.85;;
59052;SDS011;44843;44.728;10.396;2023-05-13T05:01:34;21.45;;;8.95;;
59052;SDS011;44843;44.728;10.396;2023-05-13T05:03:59;22.05;;;9.65;;
59052;SDS011;44843;44.728;10.396;2023-05-13T05:06:24;22.45;;;9.85;;
59052;SDS011;44843;44.728;10.396;2023-05-13T05:08:50;22.60;;;9.45;;
59052;SDS011;44843;44.728;10.396;2023-05-13T05:11:15;20.35;;;10.00;;
59052;SDS011;44843;44.728;10.396;2023-05-13T05:13:41;21.13;;;9.25;;
59052;SDS011;44843;44.728;10.396;2023-05-13T05:16:06;16.88;;;8.18;;
59052;SDS011;44843;44.728;10.396;2023-05-13T05:18:32;16.05;;;6.93;;
59052;SDS011;44843;44.728;10.396;2023-05-13T05:21:00;12.40;;;5.97;;
59052;SDS011;44843;44.728;10.396;2023-05-13T05:23:25;10.82;;;5.75;;
59052;SDS011;44843;44.728;10.396;2023-05-13T05:25:50;8.55;;;5.22;;
59052;SDS011;44843;44.728;10.396;2023-05-13T05:28:16;9.57;;;4.70;;
59052;SDS011;44843;44.728;10.396;2023-05-13T05:30:41;7.05;;;4.53;;
59052;SDS011;44843;44.728;10.396;2023-05-13T05:33:07;7.72;;;4.45;;
59052;SDS011;44843;44.728;10.396;2023-05-13T05:35:32;9.82;;;4.45;;
59052;SDS011;44843;44.728;10.396;2023-05-13T05:38:02;9.60;;;5.10;;
59052;SDS011;44843;44.728;10.396;2023-05-13T05:40:29;9.00;;;5.63;;
59052;SDS011;44843;44.728;10.396;2023-05-13T05:42:58;11.07;;;5.28;;
59052;SDS011;44843;44.728;10.396;2023-05-13T05:45:24;10.65;;;6.05;;
59052;SDS011;44843;44.728;10.396;2023-05-13T05:47:49;10.02;;;6.38;;
59052;SDS011;44843;44.728;10.396;2023-05-13T05:50:16;15.85;;;6.70;;
59052;SDS011;44843;44.728;10.396;2023-05-13T05:52:41;13.20;;;8.30;;
59052;SDS011;44843;44.728;10.396;2023-05-13T05:55:07;14.02;;;7.65;;
59052;SDS011;44843;44.728;10.396;2023-05-13T05:57:33;13.88;;;7.53;;
59052;SDS011;44843;44.728;10.396;2023-05-13T05:59:58;14.10;;;8.00;;
59052;SDS011;44843;44.728;10.396;2023-05-13T06:02:23;13.50;;;8.27;;
59052;SDS011;44843;44.728;10.396;2023-05-13T06:04:49;14.07;;;8.35;;
59052;SDS011;44843;44.728;10.396;2023-05-13T06:07:14;15.60;;;8.63;;
59052;SDS011;44843;44.728;10.396;2023-05-13T06:09:39;12.02;;;8.07;;
59052;SDS011;44843;44.728;10.396;2023-05-13T06:12:05;15.98;;;8.55;;
59052;SDS011;44843;44.728;10.396;2023-05-13T06:14:31;14.20;;;8.40;;
59052;SDS011;44843;44.728;10.396;2023-05-13T06:16:56;17.48;;;9.00;;
59052;SDS011;44843;44.728;10.396;2023-05-13T06:19:21;15.88;;;8.70;;
59052;SDS011;44843;44.728;10.396;2023-05-13T06:21:47;15.35;;;8.40;;
59052;SDS011;44843;44.728;10.396;2023-05-13T07:41:47;13.27;;;7.43;;
59052;SDS011;44843;44.728;10.396;2023-05-13T07:44:13;14.68;;;7.72;;
59052;SDS011;44843;44.728;10.396;2023-05-13T07:46:39;14.68;;;7.63;;
59052;SDS011;44843;44.728;10.396;2023-05-13T18:49:25;1.98;;;1.38;;
59052;SDS011;44843;44.728;10.396;2023-05-13T18:51:54;3.20;;;1.75;;
59052;SDS011;44843;44.728;10.396;2023-05-13T18:54:20;3.45;;;1.70;;
59052;SDS011;44843;44.728;10.396;2023-05-13T18:56:45;3.15;;;1.67;;
59052;SDS011;44843;44.728;10.396;2023-05-13T18:59:12;4.75;;;2.00;;
59052;SDS011;44843;44.728;10.396;2023-05-13T19:01:37;2.30;;;1.70;;
59052;SDS011;44843;44.728;10.396;2023-05-13T19:04:03;3.40;;;1.70;;
59052;SDS011;44843;44.728;10.396;2023-05-13T19:06:28;4.32;;;1.70;;
59052;SDS011;44843;44.728;10.396;2023-05-13T19:08:53;3.75;;;1.95;;
59052;SDS011;44843;44.728;10.396;2023-05-13T19:11:19;3.50;;;2.00;;
59052;SDS011;44843;44.728;10.396;2023-05-13T19:13:45;4.53;;;2.58;;
59052;SDS011;44843;44.728;10.396;2023-05-13T19:16:11;4.72;;;2.92;;
59052;SDS011;44843;44.728;10.396;2023-05-13T19:18:36;6.43;;;4.10;;
59052;SDS011;44843;44.728;10.396;2023-05-13T19:21:01;7.20;;;3.72;;
59052;SDS011;44843;44.728;10.396;2023-05-13T19:23:27;4.00;;;2.90;;
59052;SDS011;44843;44.728;10.396;2023-05-13T19:25:52;3.92;;;2.92;;
59052;SDS011;44843;44.728;10.396;2023-05-13T19:28:17;7.40;;;3.90;;
59052;SDS011;44843;44.728;10.396;2023-05-13T19:30:43;5.63;;;3.40;;
59052;SDS011;44843;44.728;10.396;2023-05-13T19:33:08;4.47;;;2.53;;
59052;SDS011;44843;44.728;10.396;2023-05-13T19:35:34;4.50;;;2.60;;
59052;SDS011;44843;44.728;10.396;2023-05-13T19:38:00;5.03;;;2.60;;
59052;SDS011;44843;44.728;10.396;2023-05-13T19:40:26;2.90;;;2.53;;
59052;SDS011;44843;44.728;10.396;2023-05-13T19:42:51;5.40;;;3.00;;
59052;SDS011;44843;44.728;10.396;2023-05-13T19:45:18;4.40;;;3.30;;
59052;SDS011;44843;44.728;10.396;2023-05-13T19:47:44;6.18;;;2.72;;
59052;SDS011;44843;44.728;10.396;2023-05-13T19:50:10;4.15;;;2.63;;
59052;SDS011;44843;44.728;10.396;2023-05-13T19:52:35;5.68;;;2.53;;
59052;SDS011;44843;44.728;10.396;2023-05-13T19:55:01;3.80;;;2.60;;
59052;SDS011;44843;44.728;10.396;2023-05-13T19:57:26;3.30;;;2.80;;
59052;SDS011;44843;44.728;10.396;2023-05-13T19:59:52;6.53;;;3.10;;
59052;SDS011;44843;44.728;10.396;2023-05-13T20:02:17;4.10;;;2.70;;
59052;SDS011;44843;44.728;10.396;2023-05-13T20:04:43;3.90;;;2.87;;
59052;SDS011;44843;44.728;10.396;2023-05-13T20:07:08;4.60;;;2.77;;
59052;SDS011;44843;44.728;10.396;2023-05-13T20:09:34;4.47;;;2.80;;
59052;SDS011;44843;44.728;10.396;2023-05-13T20:11:59;4.07;;;2.70;;
59052;SDS011;44843;44.728;10.396;2023-05-13T20:14:28;3.88;;;2.70;;
59052;SDS011;44843;44.728;10.396;2023-05-13T20:17:06;2.95;;;2.30;;
59052;SDS011;44843;44.728;10.396;2023-05-13T20:19:32;3.42;;;2.83;;
59052;SDS011;44843;44.728;10.396;2023-05-13T20:21:57;3.05;;;2.75;;
59052;SDS011;44843;44.728;10.396;2023-05-13T20:24:22;4.70;;;2.80;;
59052;SDS011;44843;44.728;10.396;2023-05-13T20:26:48;4.85;;;2.75;;
59052;SDS011;44843;44.728;10.396;2023-05-13T20:29:13;4.28;;;2.40;;
59052;SDS011;44843;44.728;10.396;2023-05-13T20:31:38;6.28;;;2.50;;
59052;SDS011;44843;44.728;10.396;2023-05-13T20:34:06;5.07;;;3.10;;
59052;SDS011;44843;44.728;10.396;2023-05-13T20:36:32;5.45;;;2.90;;
59052;SDS011;44843;44.728;10.396;2023-05-13T20:38:57;3.00;;;2.40;;
59052;SDS011;44843;44.728;10.396;2023-05-13T20:41:23;4.40;;;2.40;;
59052;SDS011;44843;44.728;10.396;2023-05-13T20:43:48;2.67;;;2.00;;
59052;SDS011;44843;44.728;10.396;2023-05-13T20:46:13;4.32;;;2.20;;
59052;SDS011;44843;44.728;10.396;2023-05-13T20:48:40;6.35;;;2.10;;
59052;SDS011;44843;44.728;10.396;2023-05-13T20:51:06;3.42;;;1.70;;
59052;SDS011;44843;44.728;10.396;2023-05-13T20:53:32;4.32;;;1.73;;
59052;SDS011;44843;44.728;10.396;2023-05-13T20:55:58;3.65;;;1.95;;
59052;SDS011;44843;44.728;10.396;2023-05-13T20:58:24;4.07;;;1.83;;
59052;SDS011;44843;44.728;10.396;2023-05-13T21:00:50;2.72;;;1.83;;
59052;SDS011;44843;44.728;10.396;2023-05-13T21:03:15;2.20;;;1.63;;
59052;SDS011;44843;44.728;10.396;2023-05-13T21:05:41;4.35;;;1.40;;
59052;SDS011;44843;44.728;10.396;2023-05-13T21:08:06;2.40;;;1.50;;
59052;SDS011;44843;44.728;10.396;2023-05-13T21:10:32;3.53;;;1.93;;
59052;SDS011;44843;44.728;10.396;2023-05-13T21:12:57;2.47;;;2.00;;
59052;SDS011;44843;44.728;10.396;2023-05-13T21:15:23;3.60;;;2.00;;
59052;SDS011;44843;44.728;10.396;2023-05-13T21:17:48;3.10;;;2.10;;
59052;SDS011;44843;44.728;10.396;2023-05-13T21:20:13;2.03;;;1.50;;
59052;SDS011;44843;44.728;10.396;2023-05-13T21:22:39;4.63;;;1.73;;
59052;SDS011;44843;44.728;10.396;2023-05-13T21:25:04;1.90;;;1.70;;
59052;SDS011;44843;44.728;10.396;2023-05-13T21:27:30;1.90;;;1.52;;
59052;SDS011;44843;44.728;10.396;2023-05-13T21:29:55;2.20;;;1.33;;
59052;SDS011;44843;44.728;10.396;2023-05-13T21:32:21;1.80;;;1.23;;
59052;SDS011;44843;44.728;10.396;2023-05-13T21:34:46;2.13;;;1.23;;
59052;SDS011;44843;44.728;10.396;2023-05-13T21:37:12;2.47;;;1.30;;
59052;SDS011;44843;44.728;10.396;2023-05-13T21:39:38;1.85;;;1.40;;
59052;SDS011;44843;44.728;10.396;2023-05-13T21:42:03;1.50;;;1.20;;
59052;SDS011;44843;44.728;10.396;2023-05-13T21:44:29;2.17;;;1.20;;
59052;SDS011;44843;44.728;10.396;2023-05-13T21:46:54;2.27;;;1.40;;
59052;SDS011;44843;44.728;10.396;2023-05-13T21:49:20;2.07;;;1.23;;
59052;SDS011;44843;44.728;10.396;2023-05-13T21:51:45;4.10;;;1.30;;
59052;SDS011;44843;44.728;10.396;2023-05-13T21:54:10;2.53;;;1.43;;
59052;SDS011;44843;44.728;10.396;2023-05-13T21:56:36;2.20;;;1.40;;
59052;SDS011;44843;44.728;10.396;2023-05-13T21:59:01;2.75;;;1.40;;
59052;SDS011;44843;44.728;10.396;2023-05-13T22:01:27;1.60;;;1.45;;
59052;SDS011;44843;44.728;10.396;2023-05-13T22:03:52;1.97;;;1.50;;
59052;SDS011;44843;44.728;10.396;2023-05-13T22:06:17;3.57;;;1.60;;
59052;SDS011;44843;44.728;10.396;2023-05-13T22:08:43;1.83;;;1.53;;
59052;SDS011;44843;44.728;10.396;2023-05-13T22:11:08;2.87;;;1.60;;
59052;SDS011;44843;44.728;10.396;2023-05-13T22:13:36;3.58;;;1.83;;
59052;SDS011;44843;44.728;10.396;2023-05-13T22:16:02;4.10;;;1.87;;
59052;SDS011;44843;44.728;10.396;2023-05-13T22:18:28;4.93;;;2.23;;
59052;SDS011;44843;44.728;10.396;2023-05-13T22:20:53;2.43;;;1.80;;
59052;SDS011;44843;44.728;10.396;2023-05-13T22:23:18;3.00;;;2.03;;
59052;SDS011;44843;44.728;10.396;2023-05-13T22:25:44;3.30;;;2.00;;
59052;SDS011;44843;44.728;10.396;2023-05-13T22:28:09;6.57;;;2.13;;
59052;SDS011;44843;44.728;10.396;2023-05-13T22:30:34;3.93;;;1.90;;
59052;SDS011;44843;44.728;10.396;2023-05-13T22:33:00;3.13;;;1.73;;
59052;SDS011;44843;44.728;10.396;2023-05-13T22:35:27;5.60;;;2.10;;
59052;SDS011;44843;44.728;10.396;2023-05-13T22:37:56;3.85;;;1.60;;
59052;SDS011;44843;44.728;10.396;2023-05-13T22:40:21;2.70;;;1.60;;
59052;SDS011;44843;44.728;10.396;2023-05-13T22:42:46;3.07;;;1.60;;
59052;SDS011;44843;44.728;10.396;2023-05-13T22:45:12;4.50;;;1.80;;
59052;SDS011;44843;44.728;10.396;2023-05-13T22:47:37;2.50;;;1.60;;
59052;SDS011;44843;44.728;10.396;2023-05-13T22:50:03;1.80;;;1.43;;
59052;SDS011;44843;44.728;10.396;2023-05-13T22:52:29;3.42;;;1.50;;
59052;SDS011;44843;44.728;10.396;2023-05-13T22:54:54;2.40;;;1.60;;
59052;SDS011;44843;44.728;10.396;2023-05-13T22:57:19;2.70;;;1.50;;
59052;SDS011;44843;44.728;10.396;2023-05-13T22:59:45;2.28;;;1.60;;
59052;SDS011;44843;44.728;10.396;2023-05-13T23:02:11;2.77;;;1.60;;
59052;SDS011;44843;44.728;10.396;2023-05-13T23:04:36;2.47;;;1.60;;
59052;SDS011;44843;44.728;10.396;2023-05-13T23:07:02;3.78;;;1.80;;
59052;SDS011;44843;44.728;10.396;2023-05-13T23:09:27;3.10;;;1.52;;
59052;SDS011;44843;44.728;10.396;2023-05-13T23:11:53;3.40;;;1.53;;
59052;SDS011;44843;44.728;10.396;2023-05-13T23:14:18;3.33;;;1.40;;
59052;SDS011;44843;44.728;10.396;2023-05-13T23:16:43;2.55;;;1.42;;
59052;SDS011;44843;44.728;10.396;2023-05-13T23:19:09;2.33;;;1.20;;
59052;SDS011;44843;44.728;10.396;2023-05-13T23:21:35;2.73;;;1.30;;
59052;SDS011;44843;44.728;10.396;2023-05-13T23:24:00;3.55;;;1.40;;
59052;SDS011;44843;44.728;10.396;2023-05-13T23:26:26;4.23;;;1.60;;
59052;SDS011;44843;44.728;10.396;2023-05-13T23:28:51;2.63;;;1.30;;
59052;SDS011;44843;44.728;10.396;2023-05-13T23:31:16;1.58;;;1.25;;
59052;SDS011;44843;44.728;10.396;2023-05-13T23:33:42;2.08;;;1.17;;
59052;SDS011;44843;44.728;10.396;2023-05-13T23:36:07;1.40;;;1.23;;
59052;SDS011;44843;44.728;10.396;2023-05-13T23:38:33;2.07;;;1.20;;
59052;SDS011;44843;44.728;10.396;2023-05-13T23:40:58;1.50;;;1.20;;
59052;SDS011;44843;44.728;10.396;2023-05-13T23:43:24;4.03;;;1.70;;
59052;SDS011;44843;44.728;10.396;2023-05-13T23:45:49;2.20;;;1.20;;
59052;SDS011;44843;44.728;10.396;2023-05-13T23:48:14;4.00;;;1.50;;
59052;SDS011;44843;44.728;10.396;2023-05-13T23:50:40;4.32;;;1.45;;
59052;SDS011;44843;44.728;10.396;2023-05-13T23:53:06;4.53;;;1.88;;
59052;SDS011;44843;44.728;10.396;2023-05-13T23:55:31;2.58;;;1.40;;
59052;SDS011;44843;44.728;10.396;2023-05-13T23:57:57;2.67;;;1.40;;
